sensor_id;sensor_type;location;lat;lon;timestamp;P1;durP1;ratioP1;P2;durP2;ratioP2
2638;SDS011;1329;51.384;7.122;2022-10-17T00:01:48;6.45;;;5.45;;
2638;SDS011;1329;51.384;7.122;2022-10-17T00:04:17;7.20;;;5.70;;
2638;SDS011;1329;51.384;7.122;2022-10-17T00:06:44;6.57;;;5.82;;
2638;SDS011;1329;51.384;7.122;2022-10-17T00:09:11;9.52;;;5.88;;
2638;SDS011;1329;51.384;7.122;2022-10-17T00:11:38;8.57;;;5.50;;
2638;SDS011;1329;51.384;7.122;2022-10-17T00:14:05;6.78;;;5.47;;
2638;SDS011;1329;51.384;7.122;2022-10-17T00:16:33;5.93;;;5.38;;
2638;SDS011;1329;51.384;7.122;2022-10-17T00:19:02;7.05;;;5.53;;
2638;SDS011;1329;51.384;7.122;2022-10-17T00:21:32;6.90;;;6.20;;
2638;SDS011;1329;51.384;7.122;2022-10-17T00:23:59;6.40;;;5.80;;
2638;SDS011;1329;51.384;7.122;2022-10-17T00:26:27;6.68;;;5.78;;
2638;SDS011;1329;51.384;7.122;2022-10-17T00:28:54;6.07;;;5.53;;
2638;SDS011;1329;51.384;7.122;2022-10-17T00:31:22;6.28;;;5.78;;
2638;SDS011;1329;51.384;7.122;2022-10-17T00:33:50;6.65;;;6.05;;
2638;SDS011;1329;51.384;7.122;2022-10-17T00:36:18;5.95;;;5.45;;
2638;SDS011;1329;51.384;7.122;2022-10-17T00:38:50;7.90;;;5.47;;
2638;SDS011;1329;51.384;7.122;2022-10-17T00:41:20;6.65;;;5.82;;
2638;SDS011;1329;51.384;7.122;2022-10-17T00:43:54;7.50;;;5.55;;
2638;SDS011;1329;51.384;7.122;2022-10-17T00:46:24;7.05;;;6.32;;
2638;SDS011;1329;51.384;7.122;2022-10-17T00:48:53;6.60;;;6.00;;
2638;SDS011;1329;51.384;7.122;2022-10-17T00:51:24;6.25;;;5.70;;
2638;SDS011;1329;51.384;7.122;2022-10-17T00:53:59;6.13;;;5.63;;
2638;SDS011;1329;51.384;7.122;2022-10-17T00:56:28;5.90;;;5.43;;
2638;SDS011;1329;51.384;7.122;2022-10-17T00:58:56;6.28;;;5.70;;
2638;SDS011;1329;51.384;7.122;2022-10-17T01:01:23;6.20;;;5.60;;
2638;SDS011;1329;51.384;7.122;2022-10-17T01:03:50;6.07;;;5.57;;
2638;SDS011;1329;51.384;7.122;2022-10-17T01:06:17;5.80;;;5.28;;
2638;SDS011;1329;51.384;7.122;2022-10-17T01:08:44;6.18;;;5.57;;
2638;SDS011;1329;51.384;7.122;2022-10-17T01:11:16;5.90;;;5.45;;
2638;SDS011;1329;51.384;7.122;2022-10-17T01:13:57;7.15;;;5.43;;
2638;SDS011;1329;51.384;7.122;2022-10-17T01:16:35;6.20;;;5.70;;
2638;SDS011;1329;51.384;7.122;2022-10-17T01:19:19;5.88;;;5.25;;
2638;SDS011;1329;51.384;7.122;2022-10-17T01:22:04;6.80;;;5.40;;
2638;SDS011;1329;51.384;7.122;2022-10-17T01:24:54;6.20;;;5.60;;
2638;SDS011;1329;51.384;7.122;2022-10-17T01:31:07;6.15;;;5.55;;
2638;SDS011;1329;51.384;7.122;2022-10-17T01:33:42;5.80;;;5.25;;
2638;SDS011;1329;51.384;7.122;2022-10-17T01:36:23;6.05;;;5.47;;
2638;SDS011;1329;51.384;7.122;2022-10-17T01:39:05;5.75;;;5.10;;
2638;SDS011;1329;51.384;7.122;2022-10-17T01:41:41;6.20;;;5.60;;
2638;SDS011;1329;51.384;7.122;2022-10-17T01:44:17;6.30;;;5.80;;
2638;SDS011;1329;51.384;7.122;2022-10-17T01:46:49;6.95;;;5.72;;
2638;SDS011;1329;51.384;7.122;2022-10-17T01:49:20;6.45;;;5.50;;
2638;SDS011;1329;51.384;7.122;2022-10-17T01:51:51;6.43;;;5.82;;
2638;SDS011;1329;51.384;7.122;2022-10-17T01:54:24;6.00;;;5.50;;
2638;SDS011;1329;51.384;7.122;2022-10-17T01:56:57;5.93;;;5.32;;
2638;SDS011;1329;51.384;7.122;2022-10-17T01:59:33;5.78;;;5.10;;
2638;SDS011;1329;51.384;7.122;2022-10-17T02:02:06;5.78;;;5.32;;
2638;SDS011;1329;51.384;7.122;2022-10-17T02:04:35;5.57;;;5.10;;
2638;SDS011;1329;51.384;7.122;2022-10-17T02:07:05;5.75;;;5.30;;
2638;SDS011;1329;51.384;7.122;2022-10-17T02:09:33;5.78;;;5.32;;
2638;SDS011;1329;51.384;7.122;2022-10-17T02:15:08;5.47;;;4.97;;
2638;SDS011;1329;51.384;7.122;2022-10-17T02:17:54;6.60;;;5.15;;
2638;SDS011;1329;51.384;7.122;2022-10-17T02:20:30;6.60;;;5.22;;
2638;SDS011;1329;51.384;7.122;2022-10-17T02:23:05;5.15;;;4.75;;
2638;SDS011;1329;51.384;7.122;2022-10-17T02:25:38;6.43;;;5.03;;
2638;SDS011;1329;51.384;7.122;2022-10-17T02:28:15;5.45;;;5.03;;
2638;SDS011;1329;51.384;7.122;2022-10-17T02:30:48;5.90;;;5.18;;
2638;SDS011;1329;51.384;7.122;2022-10-17T02:33:22;5.97;;;5.25;;
2638;SDS011;1329;51.384;7.122;2022-10-17T02:35:53;5.55;;;5.05;;
2638;SDS011;1329;51.384;7.122;2022-10-17T02:38:25;5.47;;;4.97;;
2638;SDS011;1329;51.384;7.122;2022-10-17T02:40:54;6.40;;;5.60;;
2638;SDS011;1329;51.384;7.122;2022-10-17T02:43:21;5.65;;;5.00;;
2638;SDS011;1329;51.384;7.122;2022-10-17T02:45:49;6.22;;;4.75;;
2638;SDS011;1329;51.384;7.122;2022-10-17T02:48:18;5.38;;;4.95;;
2638;SDS011;1329;51.384;7.122;2022-10-17T02:51:00;5.15;;;4.75;;
2638;SDS011;1329;51.384;7.122;2022-10-17T02:53:35;5.40;;;4.90;;
2638;SDS011;1329;51.384;7.122;2022-10-17T02:56:13;5.55;;;5.05;;
2638;SDS011;1329;51.384;7.122;2022-10-17T02:58:45;5.25;;;4.75;;
2638;SDS011;1329;51.384;7.122;2022-10-17T03:01:16;5.55;;;5.00;;
2638;SDS011;1329;51.384;7.122;2022-10-17T03:03:46;5.28;;;4.88;;
2638;SDS011;1329;51.384;7.122;2022-10-17T03:06:13;5.57;;;5.07;;
2638;SDS011;1329;51.384;7.122;2022-10-17T03:08:41;5.95;;;5.45;;
2638;SDS011;1329;51.384;7.122;2022-10-17T03:11:08;5.50;;;5.10;;
2638;SDS011;1329;51.384;7.122;2022-10-17T03:13:35;6.43;;;5.03;;
2638;SDS011;1329;51.384;7.122;2022-10-17T03:16:02;5.43;;;4.93;;
2638;SDS011;1329;51.384;7.122;2022-10-17T03:18:30;4.93;;;4.47;;
2638;SDS011;1329;51.384;7.122;2022-10-17T03:20:58;5.93;;;5.10;;
2638;SDS011;1329;51.384;7.122;2022-10-17T03:23:26;5.30;;;4.88;;
2638;SDS011;1329;51.384;7.122;2022-10-17T03:25:53;5.22;;;4.72;;
2638;SDS011;1329;51.384;7.122;2022-10-17T03:28:20;5.28;;;4.80;;
2638;SDS011;1329;51.384;7.122;2022-10-17T03:30:47;5.72;;;4.95;;
2638;SDS011;1329;51.384;7.122;2022-10-17T03:33:14;5.40;;;5.00;;
2638;SDS011;1329;51.384;7.122;2022-10-17T03:35:41;5.13;;;4.63;;
2638;SDS011;1329;51.384;7.122;2022-10-17T03:38:10;5.38;;;4.88;;
2638;SDS011;1329;51.384;7.122;2022-10-17T03:40:37;5.95;;;5.13;;
2638;SDS011;1329;51.384;7.122;2022-10-17T03:43:04;5.25;;;4.53;;
2638;SDS011;1329;51.384;7.122;2022-10-17T03:45:31;4.97;;;4.57;;
2638;SDS011;1329;51.384;7.122;2022-10-17T03:47:58;6.32;;;5.13;;
2638;SDS011;1329;51.384;7.122;2022-10-17T03:50:26;5.75;;;4.85;;
2638;SDS011;1329;51.384;7.122;2022-10-17T03:52:53;5.90;;;4.72;;
2638;SDS011;1329;51.384;7.122;2022-10-17T03:55:21;6.25;;;5.20;;
2638;SDS011;1329;51.384;7.122;2022-10-17T03:57:50;5.25;;;4.75;;
2638;SDS011;1329;51.384;7.122;2022-10-17T04:00:17;5.80;;;4.60;;
2638;SDS011;1329;51.384;7.122;2022-10-17T04:02:44;5.20;;;4.70;;
2638;SDS011;1329;51.384;7.122;2022-10-17T04:05:11;5.00;;;4.50;;
2638;SDS011;1329;51.384;7.122;2022-10-17T04:07:38;5.30;;;4.80;;
2638;SDS011;1329;51.384;7.122;2022-10-17T04:10:06;5.47;;;4.97;;
2638;SDS011;1329;51.384;7.122;2022-10-17T04:12:36;6.10;;;5.15;;
2638;SDS011;1329;51.384;7.122;2022-10-17T04:15:03;5.38;;;4.88;;
2638;SDS011;1329;51.384;7.122;2022-10-17T04:17:32;5.13;;;4.72;;
2638;SDS011;1329;51.384;7.122;2022-10-17T04:19:59;5.18;;;4.57;;
2638;SDS011;1329;51.384;7.122;2022-10-17T04:22:26;5.30;;;4.80;;
2638;SDS011;1329;51.384;7.122;2022-10-17T04:24:53;6.32;;;4.85;;
2638;SDS011;1329;51.384;7.122;2022-10-17T04:27:20;4.88;;;4.53;;
2638;SDS011;1329;51.384;7.122;2022-10-17T04:29:49;4.93;;;4.50;;
2638;SDS011;1329;51.384;7.122;2022-10-17T04:32:16;5.00;;;4.55;;
2638;SDS011;1329;51.384;7.122;2022-10-17T04:34:43;6.57;;;4.97;;
2638;SDS011;1329;51.384;7.122;2022-10-17T04:37:14;5.28;;;4.82;;
2638;SDS011;1329;51.384;7.122;2022-10-17T04:39:41;6.07;;;4.78;;
2638;SDS011;1329;51.384;7.122;2022-10-17T04:42:08;5.20;;;4.60;;
2638;SDS011;1329;51.384;7.122;2022-10-17T04:44:35;5.20;;;4.80;;
2638;SDS011;1329;51.384;7.122;2022-10-17T04:47:04;5.20;;;4.70;;
2638;SDS011;1329;51.384;7.122;2022-10-17T04:49:31;5.30;;;4.80;;
2638;SDS011;1329;51.384;7.122;2022-10-17T04:51:58;4.65;;;4.28;;
2638;SDS011;1329;51.384;7.122;2022-10-17T04:54:25;6.30;;;4.82;;
2638;SDS011;1329;51.384;7.122;2022-10-17T04:56:52;5.25;;;4.85;;
2638;SDS011;1329;51.384;7.122;2022-10-17T04:59:19;5.05;;;4.55;;
2638;SDS011;1329;51.384;7.122;2022-10-17T05:01:47;5.47;;;4.80;;
2638;SDS011;1329;51.384;7.122;2022-10-17T05:04:16;5.90;;;4.80;;
2638;SDS011;1329;51.384;7.122;2022-10-17T05:06:43;5.25;;;4.80;;
2638;SDS011;1329;51.384;7.122;2022-10-17T05:09:10;5.22;;;4.70;;
2638;SDS011;1329;51.384;7.122;2022-10-17T05:11:37;7.85;;;5.00;;
2638;SDS011;1329;51.384;7.122;2022-10-17T05:14:04;5.30;;;4.80;;
2638;SDS011;1329;51.384;7.122;2022-10-17T05:16:31;5.00;;;4.32;;
2638;SDS011;1329;51.384;7.122;2022-10-17T05:19:00;6.03;;;4.85;;
2638;SDS011;1329;51.384;7.122;2022-10-17T05:21:29;5.13;;;4.70;;
2638;SDS011;1329;51.384;7.122;2022-10-17T05:23:57;5.60;;;5.10;;
2638;SDS011;1329;51.384;7.122;2022-10-17T05:26:25;4.80;;;4.40;;
2638;SDS011;1329;51.384;7.122;2022-10-17T05:28:52;5.05;;;4.65;;
2638;SDS011;1329;51.384;7.122;2022-10-17T05:31:19;5.00;;;4.60;;
2638;SDS011;1329;51.384;7.122;2022-10-17T05:33:46;5.00;;;4.50;;
2638;SDS011;1329;51.384;7.122;2022-10-17T05:36:13;4.90;;;4.50;;
2638;SDS011;1329;51.384;7.122;2022-10-17T05:38:42;4.95;;;4.38;;
2638;SDS011;1329;51.384;7.122;2022-10-17T05:41:09;4.93;;;4.43;;
2638;SDS011;1329;51.384;7.122;2022-10-17T05:43:36;5.20;;;4.70;;
2638;SDS011;1329;51.384;7.122;2022-10-17T05:46:06;5.60;;;4.72;;
2638;SDS011;1329;51.384;7.122;2022-10-17T05:48:33;5.53;;;4.57;;
2638;SDS011;1329;51.384;7.122;2022-10-17T05:51:02;4.85;;;4.32;;
2638;SDS011;1329;51.384;7.122;2022-10-17T05:53:32;5.35;;;4.95;;
2638;SDS011;1329;51.384;7.122;2022-10-17T05:56:04;5.13;;;4.60;;
2638;SDS011;1329;51.384;7.122;2022-10-17T05:58:33;5.22;;;4.55;;
2638;SDS011;1329;51.384;7.122;2022-10-17T06:01:01;7.03;;;4.47;;
2638;SDS011;1329;51.384;7.122;2022-10-17T06:03:31;5.43;;;4.70;;
2638;SDS011;1329;51.384;7.122;2022-10-17T06:06:01;5.53;;;4.68;;
2638;SDS011;1329;51.384;7.122;2022-10-17T06:08:30;5.40;;;4.90;;
2638;SDS011;1329;51.384;7.122;2022-10-17T06:10:57;5.22;;;4.63;;
2638;SDS011;1329;51.384;7.122;2022-10-17T06:13:26;4.90;;;4.50;;
2638;SDS011;1329;51.384;7.122;2022-10-17T06:15:53;5.20;;;4.70;;
2638;SDS011;1329;51.384;7.122;2022-10-17T06:18:22;5.60;;;5.10;;
2638;SDS011;1329;51.384;7.122;2022-10-17T06:20:50;4.82;;;4.43;;
2638;SDS011;1329;51.384;7.122;2022-10-17T06:23:17;5.05;;;4.57;;
2638;SDS011;1329;51.384;7.122;2022-10-17T06:25:45;5.03;;;4.53;;
2638;SDS011;1329;51.384;7.122;2022-10-17T06:28:12;5.00;;;4.60;;
2638;SDS011;1329;51.384;7.122;2022-10-17T06:30:41;5.93;;;4.35;;
2638;SDS011;1329;51.384;7.122;2022-10-17T06:33:12;6.00;;;4.60;;
2638;SDS011;1329;51.384;7.122;2022-10-17T06:35:40;4.82;;;4.32;;
2638;SDS011;1329;51.384;7.122;2022-10-17T06:38:08;5.10;;;4.57;;
2638;SDS011;1329;51.384;7.122;2022-10-17T06:40:40;4.93;;;4.53;;
2638;SDS011;1329;51.384;7.122;2022-10-17T06:43:08;4.53;;;4.13;;
2638;SDS011;1329;51.384;7.122;2022-10-17T06:45:37;4.85;;;4.45;;
2638;SDS011;1329;51.384;7.122;2022-10-17T06:48:06;4.60;;;4.20;;
2638;SDS011;1329;51.384;7.122;2022-10-17T06:50:34;4.88;;;4.47;;
2638;SDS011;1329;51.384;7.122;2022-10-17T06:53:01;5.38;;;4.28;;
2638;SDS011;1329;51.384;7.122;2022-10-17T06:55:29;4.88;;;4.35;;
2638;SDS011;1329;51.384;7.122;2022-10-17T06:57:57;4.38;;;4.07;;
2638;SDS011;1329;51.384;7.122;2022-10-17T07:00:24;5.50;;;4.53;;
2638;SDS011;1329;51.384;7.122;2022-10-17T07:02:52;4.80;;;4.40;;
2638;SDS011;1329;51.384;7.122;2022-10-17T07:05:21;4.82;;;4.47;;
2638;SDS011;1329;51.384;7.122;2022-10-17T07:07:48;4.45;;;4.15;;
2638;SDS011;1329;51.384;7.122;2022-10-17T07:10:16;5.95;;;4.43;;
2638;SDS011;1329;51.384;7.122;2022-10-17T07:12:43;5.30;;;4.90;;
2638;SDS011;1329;51.384;7.122;2022-10-17T07:15:11;5.30;;;4.43;;
2638;SDS011;1329;51.384;7.122;2022-10-17T07:17:38;4.68;;;4.28;;
2638;SDS011;1329;51.384;7.122;2022-10-17T07:20:09;6.70;;;4.60;;
2638;SDS011;1329;51.384;7.122;2022-10-17T07:22:38;4.88;;;4.38;;
2638;SDS011;1329;51.384;7.122;2022-10-17T07:25:06;5.45;;;4.75;;
2638;SDS011;1329;51.384;7.122;2022-10-17T07:27:35;5.07;;;4.63;;
2638;SDS011;1329;51.384;7.122;2022-10-17T07:30:02;4.55;;;4.18;;
2638;SDS011;1329;51.384;7.122;2022-10-17T07:32:31;5.50;;;4.72;;
2638;SDS011;1329;51.384;7.122;2022-10-17T07:34:58;6.35;;;4.68;;
2638;SDS011;1329;51.384;7.122;2022-10-17T07:37:26;4.90;;;4.32;;
2638;SDS011;1329;51.384;7.122;2022-10-17T07:39:57;5.82;;;4.80;;
2638;SDS011;1329;51.384;7.122;2022-10-17T07:42:25;5.20;;;4.70;;
2638;SDS011;1329;51.384;7.122;2022-10-17T07:44:53;5.50;;;4.30;;
2638;SDS011;1329;51.384;7.122;2022-10-17T07:47:20;4.25;;;3.95;;
2638;SDS011;1329;51.384;7.122;2022-10-17T07:49:47;4.60;;;3.95;;
2638;SDS011;1329;51.384;7.122;2022-10-17T07:52:15;5.00;;;4.57;;
2638;SDS011;1329;51.384;7.122;2022-10-17T07:54:43;5.03;;;4.30;;
2638;SDS011;1329;51.384;7.122;2022-10-17T07:57:12;4.75;;;4.35;;
2638;SDS011;1329;51.384;7.122;2022-10-17T07:59:39;4.63;;;4.22;;
2638;SDS011;1329;51.384;7.122;2022-10-17T08:02:07;5.13;;;4.65;;
2638;SDS011;1329;51.384;7.122;2022-10-17T08:04:40;5.30;;;4.38;;
2638;SDS011;1329;51.384;7.122;2022-10-17T08:07:07;4.88;;;4.40;;
2638;SDS011;1329;51.384;7.122;2022-10-17T08:09:35;4.78;;;4.38;;
2638;SDS011;1329;51.384;7.122;2022-10-17T08:12:02;4.90;;;4.50;;
2638;SDS011;1329;51.384;7.122;2022-10-17T08:14:32;4.68;;;4.32;;
2638;SDS011;1329;51.384;7.122;2022-10-17T08:16:59;4.43;;;4.03;;
2638;SDS011;1329;51.384;7.122;2022-10-17T08:19:27;4.10;;;3.75;;
2638;SDS011;1329;51.384;7.122;2022-10-17T08:21:54;4.95;;;3.95;;
2638;SDS011;1329;51.384;7.122;2022-10-17T08:24:23;4.40;;;4.10;;
2638;SDS011;1329;51.384;7.122;2022-10-17T08:26:51;8.05;;;4.13;;
2638;SDS011;1329;51.384;7.122;2022-10-17T08:29:18;5.03;;;4.50;;
2638;SDS011;1329;51.384;7.122;2022-10-17T08:31:47;5.35;;;4.10;;
2638;SDS011;1329;51.384;7.122;2022-10-17T08:34:15;4.40;;;4.00;;
2638;SDS011;1329;51.384;7.122;2022-10-17T08:36:42;4.90;;;4.40;;
2638;SDS011;1329;51.384;7.122;2022-10-17T08:39:11;4.43;;;4.03;;
2638;SDS011;1329;51.384;7.122;2022-10-17T08:41:43;7.68;;;4.07;;
2638;SDS011;1329;51.384;7.122;2022-10-17T08:44:32;4.30;;;3.95;;
2638;SDS011;1329;51.384;7.122;2022-10-17T08:47:13;4.70;;;4.20;;
2638;SDS011;1329;51.384;7.122;2022-10-17T08:49:47;4.40;;;3.80;;
2638;SDS011;1329;51.384;7.122;2022-10-17T08:52:24;4.57;;;4.13;;
2638;SDS011;1329;51.384;7.122;2022-10-17T08:55:03;4.43;;;4.00;;
2638;SDS011;1329;51.384;7.122;2022-10-17T08:57:38;4.47;;;4.07;;
2638;SDS011;1329;51.384;7.122;2022-10-17T09:00:10;6.43;;;3.95;;
2638;SDS011;1329;51.384;7.122;2022-10-17T09:02:48;4.18;;;3.58;;
2638;SDS011;1329;51.384;7.122;2022-10-17T09:05:35;3.97;;;3.67;;
2638;SDS011;1329;51.384;7.122;2022-10-17T09:08:19;4.13;;;3.83;;
2638;SDS011;1329;51.384;7.122;2022-10-17T09:11:02;3.75;;;3.45;;
2638;SDS011;1329;51.384;7.122;2022-10-17T09:13:54;4.07;;;3.78;;
2638;SDS011;1329;51.384;7.122;2022-10-17T09:16:44;5.07;;;3.47;;
2638;SDS011;1329;51.384;7.122;2022-10-17T09:19:29;4.03;;;3.65;;
2638;SDS011;1329;51.384;7.122;2022-10-17T09:22:05;5.10;;;3.90;;
2638;SDS011;1329;51.384;7.122;2022-10-17T09:24:48;4.00;;;3.63;;
2638;SDS011;1329;51.384;7.122;2022-10-17T09:27:22;6.28;;;4.20;;
2638;SDS011;1329;51.384;7.122;2022-10-17T09:30:13;3.92;;;3.45;;
2638;SDS011;1329;51.384;7.122;2022-10-17T09:32:57;3.90;;;3.42;;
2638;SDS011;1329;51.384;7.122;2022-10-17T09:35:34;3.60;;;3.30;;
2638;SDS011;1329;51.384;7.122;2022-10-17T09:38:11;4.75;;;3.25;;
2638;SDS011;1329;51.384;7.122;2022-10-17T09:40:43;3.90;;;3.60;;
2638;SDS011;1329;51.384;7.122;2022-10-17T09:43:23;3.90;;;3.50;;
2638;SDS011;1329;51.384;7.122;2022-10-17T09:45:58;3.90;;;3.60;;
2638;SDS011;1329;51.384;7.122;2022-10-17T09:48:36;3.42;;;3.13;;
2638;SDS011;1329;51.384;7.122;2022-10-17T09:51:13;5.00;;;3.75;;
2638;SDS011;1329;51.384;7.122;2022-10-17T09:53:50;4.35;;;3.83;;
2638;SDS011;1329;51.384;7.122;2022-10-17T09:56:22;4.25;;;3.50;;
2638;SDS011;1329;51.384;7.122;2022-10-17T09:58:51;3.55;;;3.20;;
2638;SDS011;1329;51.384;7.122;2022-10-17T10:01:26;3.72;;;3.42;;
2638;SDS011;1329;51.384;7.122;2022-10-17T10:04:09;4.20;;;3.20;;
2638;SDS011;1329;51.384;7.122;2022-10-17T10:06:41;3.67;;;3.35;;
2638;SDS011;1329;51.384;7.122;2022-10-17T10:09:36;6.35;;;3.58;;
2638;SDS011;1329;51.384;7.122;2022-10-17T10:12:05;3.78;;;3.47;;
2638;SDS011;1329;51.384;7.122;2022-10-17T10:14:44;3.70;;;3.40;;
2638;SDS011;1329;51.384;7.122;2022-10-17T10:17:26;3.88;;;3.58;;
2638;SDS011;1329;51.384;7.122;2022-10-17T10:20:05;3.60;;;3.30;;
2638;SDS011;1329;51.384;7.122;2022-10-17T10:25:53;4.63;;;3.50;;
2638;SDS011;1329;51.384;7.122;2022-10-17T10:28:26;4.28;;;3.88;;
2638;SDS011;1329;51.384;7.122;2022-10-17T10:31:08;4.05;;;3.50;;
2638;SDS011;1329;51.384;7.122;2022-10-17T10:33:43;4.00;;;3.50;;
2638;SDS011;1329;51.384;7.122;2022-10-17T10:36:20;3.65;;;3.35;;
2638;SDS011;1329;51.384;7.122;2022-10-17T10:38:53;4.13;;;3.60;;
2638;SDS011;1329;51.384;7.122;2022-10-17T10:41:23;3.83;;;3.53;;
2638;SDS011;1329;51.384;7.122;2022-10-17T10:43:57;4.28;;;3.70;;
2638;SDS011;1329;51.384;7.122;2022-10-17T10:46:28;4.10;;;3.35;;
2638;SDS011;1329;51.384;7.122;2022-10-17T10:49:01;4.28;;;3.33;;
2638;SDS011;1329;51.384;7.122;2022-10-17T10:51:34;3.70;;;3.40;;
2638;SDS011;1329;51.384;7.122;2022-10-17T10:54:10;3.72;;;3.10;;
2638;SDS011;1329;51.384;7.122;2022-10-17T10:56:51;3.97;;;3.50;;
2638;SDS011;1329;51.384;7.122;2022-10-17T10:59:28;3.83;;;3.42;;
2638;SDS011;1329;51.384;7.122;2022-10-17T11:02:03;3.88;;;3.55;;
2638;SDS011;1329;51.384;7.122;2022-10-17T11:04:42;3.75;;;3.42;;
2638;SDS011;1329;51.384;7.122;2022-10-17T11:07:19;5.43;;;3.35;;
2638;SDS011;1329;51.384;7.122;2022-10-17T11:09:59;4.53;;;3.42;;
2638;SDS011;1329;51.384;7.122;2022-10-17T11:12:40;3.75;;;3.22;;
2638;SDS011;1329;51.384;7.122;2022-10-17T11:15:19;3.75;;;3.45;;
2638;SDS011;1329;51.384;7.122;2022-10-17T11:18:04;4.15;;;3.47;;
2638;SDS011;1329;51.384;7.122;2022-10-17T11:20:35;4.90;;;3.72;;
2638;SDS011;1329;51.384;7.122;2022-10-17T11:23:15;4.50;;;3.38;;
2638;SDS011;1329;51.384;7.122;2022-10-17T11:25:58;3.58;;;3.28;;
2638;SDS011;1329;51.384;7.122;2022-10-17T11:28:33;4.07;;;3.33;;
2638;SDS011;1329;51.384;7.122;2022-10-17T11:31:01;4.00;;;3.60;;
2638;SDS011;1329;51.384;7.122;2022-10-17T11:33:48;4.45;;;4.00;;
2638;SDS011;1329;51.384;7.122;2022-10-17T11:36:23;3.38;;;3.17;;
2638;SDS011;1329;51.384;7.122;2022-10-17T11:38:57;3.97;;;3.53;;
2638;SDS011;1329;51.384;7.122;2022-10-17T11:41:38;4.32;;;3.50;;
2638;SDS011;1329;51.384;7.122;2022-10-17T11:44:24;4.07;;;3.58;;
2638;SDS011;1329;51.384;7.122;2022-10-17T11:46:57;4.15;;;3.75;;
2638;SDS011;1329;51.384;7.122;2022-10-17T11:49:33;4.03;;;3.72;;
2638;SDS011;1329;51.384;7.122;2022-10-17T11:52:12;3.78;;;3.45;;
2638;SDS011;1329;51.384;7.122;2022-10-17T11:54:58;6.55;;;3.72;;
2638;SDS011;1329;51.384;7.122;2022-10-17T11:57:34;4.18;;;3.78;;
2638;SDS011;1329;51.384;7.122;2022-10-17T12:00:20;3.92;;;3.50;;
2638;SDS011;1329;51.384;7.122;2022-10-17T12:03:04;4.60;;;3.58;;
2638;SDS011;1329;51.384;7.122;2022-10-17T12:06:02;5.75;;;3.95;;
2638;SDS011;1329;51.384;7.122;2022-10-17T12:08:40;3.95;;;3.65;;
2638;SDS011;1329;51.384;7.122;2022-10-17T12:11:19;3.65;;;3.35;;
2638;SDS011;1329;51.384;7.122;2022-10-17T12:14:33;3.95;;;3.47;;
2638;SDS011;1329;51.384;7.122;2022-10-17T12:17:22;5.18;;;3.45;;
2638;SDS011;1329;51.384;7.122;2022-10-17T12:23:16;3.70;;;3.40;;
2638;SDS011;1329;51.384;7.122;2022-10-17T12:25:52;4.43;;;4.03;;
2638;SDS011;1329;51.384;7.122;2022-10-17T12:28:28;3.67;;;3.38;;
2638;SDS011;1329;51.384;7.122;2022-10-17T12:31:00;4.45;;;3.72;;
2638;SDS011;1329;51.384;7.122;2022-10-17T12:33:35;4.75;;;4.05;;
2638;SDS011;1329;51.384;7.122;2022-10-17T12:42:31;4.15;;;3.63;;
2638;SDS011;1329;51.384;7.122;2022-10-17T12:55:29;4.40;;;3.85;;
2638;SDS011;1329;51.384;7.122;2022-10-17T12:58:05;4.15;;;3.53;;
2638;SDS011;1329;51.384;7.122;2022-10-17T13:00:47;4.40;;;4.00;;
2638;SDS011;1329;51.384;7.122;2022-10-17T13:03:22;5.85;;;4.07;;
2638;SDS011;1329;51.384;7.122;2022-10-17T13:05:53;5.88;;;4.10;;
2638;SDS011;1329;51.384;7.122;2022-10-17T13:08:30;4.65;;;4.20;;
2638;SDS011;1329;51.384;7.122;2022-10-17T13:11:03;3.70;;;3.45;;
2638;SDS011;1329;51.384;7.122;2022-10-17T13:13:37;4.22;;;3.92;;
2638;SDS011;1329;51.384;7.122;2022-10-17T13:16:26;4.38;;;3.97;;
2638;SDS011;1329;51.384;7.122;2022-10-17T13:18:55;4.63;;;4.22;;
2638;SDS011;1329;51.384;7.122;2022-10-17T13:21:37;4.47;;;3.85;;
2638;SDS011;1329;51.384;7.122;2022-10-17T13:24:26;4.18;;;3.88;;
2638;SDS011;1329;51.384;7.122;2022-10-17T13:27:03;5.60;;;3.90;;
2638;SDS011;1329;51.384;7.122;2022-10-17T13:29:50;4.40;;;4.00;;
2638;SDS011;1329;51.384;7.122;2022-10-17T13:32:24;5.30;;;4.03;;
2638;SDS011;1329;51.384;7.122;2022-10-17T13:35:05;4.18;;;3.78;;
2638;SDS011;1329;51.384;7.122;2022-10-17T13:37:38;5.05;;;4.07;;
2638;SDS011;1329;51.384;7.122;2022-10-17T13:40:14;4.75;;;4.35;;
2638;SDS011;1329;51.384;7.122;2022-10-17T13:42:43;4.25;;;3.95;;
2638;SDS011;1329;51.384;7.122;2022-10-17T13:45:14;4.60;;;4.30;;
2638;SDS011;1329;51.384;7.122;2022-10-17T13:47:46;4.65;;;4.25;;
2638;SDS011;1329;51.384;7.122;2022-10-17T13:50:18;5.03;;;4.30;;
2638;SDS011;1329;51.384;7.122;2022-10-17T13:53:04;4.80;;;4.40;;
2638;SDS011;1329;51.384;7.122;2022-10-17T13:55:54;5.25;;;4.85;;
2638;SDS011;1329;51.384;7.122;2022-10-17T13:58:24;5.50;;;4.50;;
2638;SDS011;1329;51.384;7.122;2022-10-17T14:00:56;5.03;;;4.15;;
2638;SDS011;1329;51.384;7.122;2022-10-17T14:03:24;4.93;;;4.43;;
2638;SDS011;1329;51.384;7.122;2022-10-17T14:05:58;4.70;;;4.22;;
2638;SDS011;1329;51.384;7.122;2022-10-17T14:08:34;5.30;;;4.60;;
2638;SDS011;1329;51.384;7.122;2022-10-17T14:11:13;4.43;;;4.03;;
2638;SDS011;1329;51.384;7.122;2022-10-17T14:13:53;5.28;;;4.35;;
2638;SDS011;1329;51.384;7.122;2022-10-17T14:16:23;4.75;;;4.35;;
2638;SDS011;1329;51.384;7.122;2022-10-17T14:18:58;5.88;;;4.70;;
2638;SDS011;1329;51.384;7.122;2022-10-17T14:21:26;4.68;;;4.28;;
2638;SDS011;1329;51.384;7.122;2022-10-17T14:26:57;5.03;;;4.50;;
2638;SDS011;1329;51.384;7.122;2022-10-17T14:29:26;5.07;;;4.25;;
2638;SDS011;1329;51.384;7.122;2022-10-17T14:31:57;5.10;;;4.20;;
2638;SDS011;1329;51.384;7.122;2022-10-17T14:34:33;5.50;;;4.63;;
2638;SDS011;1329;51.384;7.122;2022-10-17T14:37:07;5.50;;;4.25;;
2638;SDS011;1329;51.384;7.122;2022-10-17T14:39:52;4.55;;;4.13;;
2638;SDS011;1329;51.384;7.122;2022-10-17T14:42:26;5.35;;;4.13;;
2638;SDS011;1329;51.384;7.122;2022-10-17T14:45:03;5.32;;;3.75;;
2638;SDS011;1329;51.384;7.122;2022-10-17T14:47:37;6.78;;;4.72;;
2638;SDS011;1329;51.384;7.122;2022-10-17T14:50:19;5.05;;;4.07;;
2638;SDS011;1329;51.384;7.122;2022-10-17T14:53:01;4.53;;;3.90;;
2638;SDS011;1329;51.384;7.122;2022-10-17T14:55:53;5.15;;;4.30;;
2638;SDS011;1329;51.384;7.122;2022-10-17T14:58:25;5.05;;;4.18;;
2638;SDS011;1329;51.384;7.122;2022-10-17T15:00:55;4.93;;;3.35;;
2638;SDS011;1329;51.384;7.122;2022-10-17T15:03:24;3.92;;;3.50;;
2638;SDS011;1329;51.384;7.122;2022-10-17T15:05:53;5.15;;;3.70;;
2638;SDS011;1329;51.384;7.122;2022-10-17T15:08:25;5.95;;;4.25;;
2638;SDS011;1329;51.384;7.122;2022-10-17T15:11:00;4.85;;;4.07;;
2638;SDS011;1329;51.384;7.122;2022-10-17T15:13:31;4.60;;;3.83;;
2638;SDS011;1329;51.384;7.122;2022-10-17T15:15:59;6.95;;;4.00;;
2638;SDS011;1329;51.384;7.122;2022-10-17T15:18:27;5.40;;;3.67;;
2638;SDS011;1329;51.384;7.122;2022-10-17T15:20:58;4.18;;;3.58;;
2638;SDS011;1329;51.384;7.122;2022-10-17T15:23:27;4.57;;;3.72;;
2638;SDS011;1329;51.384;7.122;2022-10-17T15:25:55;4.75;;;4.00;;
2638;SDS011;1329;51.384;7.122;2022-10-17T15:28:28;5.45;;;3.75;;
2638;SDS011;1329;51.384;7.122;2022-10-17T15:30:59;6.55;;;4.05;;
2638;SDS011;1329;51.384;7.122;2022-10-17T15:33:27;4.70;;;3.90;;
2638;SDS011;1329;51.384;7.122;2022-10-17T15:35:54;4.13;;;3.83;;
2638;SDS011;1329;51.384;7.122;2022-10-17T15:38:27;5.97;;;4.20;;
2638;SDS011;1329;51.384;7.122;2022-10-17T15:40:54;5.43;;;4.15;;
2638;SDS011;1329;51.384;7.122;2022-10-17T15:43:21;4.85;;;4.30;;
2638;SDS011;1329;51.384;7.122;2022-10-17T15:45:48;6.45;;;5.35;;
2638;SDS011;1329;51.384;7.122;2022-10-17T15:48:17;4.55;;;4.03;;
2638;SDS011;1329;51.384;7.122;2022-10-17T15:50:51;6.03;;;3.95;;
2638;SDS011;1329;51.384;7.122;2022-10-17T15:53:18;5.45;;;3.90;;
2638;SDS011;1329;51.384;7.122;2022-10-17T15:55:46;4.45;;;3.70;;
2638;SDS011;1329;51.384;7.122;2022-10-17T15:58:15;4.90;;;3.92;;
2638;SDS011;1329;51.384;7.122;2022-10-17T16:00:44;4.55;;;4.13;;
2638;SDS011;1329;51.384;7.122;2022-10-17T16:03:12;4.65;;;4.25;;
2638;SDS011;1329;51.384;7.122;2022-10-17T16:05:40;4.30;;;3.80;;
2638;SDS011;1329;51.384;7.122;2022-10-17T16:08:07;4.10;;;3.70;;
2638;SDS011;1329;51.384;7.122;2022-10-17T16:10:38;4.97;;;4.05;;
2638;SDS011;1329;51.384;7.122;2022-10-17T16:13:08;5.40;;;4.28;;
2638;SDS011;1329;51.384;7.122;2022-10-17T16:15:41;5.07;;;4.28;;
2638;SDS011;1329;51.384;7.122;2022-10-17T16:18:09;5.13;;;4.70;;
2638;SDS011;1329;51.384;7.122;2022-10-17T16:20:37;5.53;;;4.35;;